sensor_id;sensor_type;location;lat;lon;timestamp;temperature;humidity
54684;DHT22;40582;53.100;6.686;2023-04-24T00:02:21;11.90;99.90
54684;DHT22;40582;53.100;6.686;2023-04-24T00:04:47;12.00;99.90
54684;DHT22;40582;53.100;6.686;2023-04-24T00:07:14;11.90;99.90
54684;DHT22;40582;53.100;6.686;2023-04-24T00:09:43;11.90;99.90
54684;DHT22;40582;53.100;6.686;2023-04-24T00:12:09;11.90;99.90
54684;DHT22;40582;53.100;6.686;2023-04-24T00:14:35;11.90;99.90
54684;DHT22;40582;53.100;6.686;2023-04-24T00:17:01;11.90;99.90
54684;DHT22;40582;53.100;6.686;2023-04-24T00:19:28;12.00;99.90
54684;DHT22;40582;53.100;6.686;2023-04-24T00:21:54;12.00;99.90
54684;DHT22;40582;53.100;6.686;2023-04-24T00:24:20;11.90;99.90
54684;DHT22;40582;53.100;6.686;2023-04-24T00:26:47;11.90;99.90
54684;DHT22;40582;53.100;6.686;2023-04-24T00:29:12;11.90;99.90
54684;DHT22;40582;53.100;6.686;2023-04-24T00:31:38;11.90;99.90
54684;DHT22;40582;53.100;6.686;2023-04-24T00:34:05;11.90;99.90
54684;DHT22;40582;53.100;6.686;2023-04-24T00:36:31;11.90;99.90
54684;DHT22;40582;53.100;6.686;2023-04-24T00:38:58;11.90;99.90
54684;DHT22;40582;53.100;6.686;2023-04-24T00:41:25;11.90;99.90
54684;DHT22;40582;53.100;6.686;2023-04-24T00:43:52;11.80;99.90
54684;DHT22;40582;53.100;6.686;2023-04-24T00:46:18;11.80;99.90
54684;DHT22;40582;53.100;6.686;2023-04-24T00:48:44;11.80;99.90
54684;DHT22;40582;53.100;6.686;2023-04-24T00:51:10;11.70;99.90
54684;DHT22;40582;53.100;6.686;2023-04-24T00:53:35;11.70;99.90
54684;DHT22;40582;53.100;6.686;2023-04-24T00:56:02;11.60;99.90
54684;DHT22;40582;53.100;6.686;2023-04-24T00:58:28;11.60;99.90
54684;DHT22;40582;53.100;6.686;2023-04-24T01:00:54;11.50;99.90
54684;DHT22;40582;53.100;6.686;2023-04-24T01:03:25;11.50;99.90
54684;DHT22;40582;53.100;6.686;2023-04-24T01:05:52;11.50;99.90
54684;DHT22;40582;53.100;6.686;2023-04-24T01:08:22;11.50;99.90
54684;DHT22;40582;53.100;6.686;2023-04-24T01:10:50;11.60;99.90
54684;DHT22;40582;53.100;6.686;2023-04-24T01:13:17;11.60;99.90
54684;DHT22;40582;53.100;6.686;2023-04-24T01:15:43;11.60;99.90
54684;DHT22;40582;53.100;6.686;2023-04-24T01:18:08;11.70;99.90
54684;DHT22;40582;53.100;6.686;2023-04-24T01:20:35;11.70;99.90
54684;DHT22;40582;53.100;6.686;2023-04-24T01:23:02;11.70;99.90
54684;DHT22;40582;53.100;6.686;2023-04-24T01:25:28;11.60;99.90
54684;DHT22;40582;53.100;6.686;2023-04-24T01:27:54;11.60;99.90
54684;DHT22;40582;53.100;6.686;2023-04-24T01:30:20;11.60;99.90
54684;DHT22;40582;53.100;6.686;2023-04-24T01:32:46;11.70;99.90
54684;DHT22;40582;53.100;6.686;2023-04-24T01:35:12;11.70;99.90
54684;DHT22;40582;53.100;6.686;2023-04-24T01:37:37;11.70;99.90
54684;DHT22;40582;53.100;6.686;2023-04-24T01:40:06;11.70;99.90
54684;DHT22;40582;53.100;6.686;2023-04-24T01:42:33;11.80;99.90
54684;DHT22;40582;53.100;6.686;2023-04-24T01:45:00;11.80;99.90
54684;DHT22;40582;53.100;6.686;2023-04-24T01:47:27;11.80;99.90
54684;DHT22;40582;53.100;6.686;2023-04-24T01:49:53;11.70;99.90
54684;DHT22;40582;53.100;6.686;2023-04-24T01:52:19;11.70;99.90
54684;DHT22;40582;53.100;6.686;2023-04-24T01:54:45;11.70;99.90
54684;DHT22;40582;53.100;6.686;2023-04-24T01:57:10;11.70;99.90
54684;DHT22;40582;53.100;6.686;2023-04-24T01:59:36;11.70;99.90
54684;DHT22;40582;53.100;6.686;2023-04-24T02:02:05;11.60;99.90
54684;DHT22;40582;53.100;6.686;2023-04-24T02:04:31;11.60;99.90
54684;DHT22;40582;53.100;6.686;2023-04-24T02:06:57;11.60;99.90
54684;DHT22;40582;53.100;6.686;2023-04-24T02:09:22;11.60;99.90
54684;DHT22;40582;53.100;6.686;2023-04-24T02:11:48;11.60;99.90
54684;DHT22;40582;53.100;6.686;2023-04-24T02:14:14;11.60;99.90
54684;DHT22;40582;53.100;6.686;2023-04-24T02:16:40;11.50;99.90
54684;DHT22;40582;53.100;6.686;2023-04-24T02:19:05;11.60;99.90
54684;DHT22;40582;53.100;6.686;2023-04-24T02:21:31;11.50;99.90
54684;DHT22;40582;53.100;6.686;2023-04-24T02:23:58;11.50;99.90
54684;DHT22;40582;53.100;6.686;2023-04-24T02:26:24;11.50;99.90
54684;DHT22;40582;53.100;6.686;2023-04-24T02:28:50;11.50;99.90
54684;DHT22;40582;53.100;6.686;2023-04-24T02:31:15;11.50;99.90
54684;DHT22;40582;53.100;6.686;2023-04-24T02:33:41;11.40;99.90
54684;DHT22;40582;53.100;6.686;2023-04-24T02:36:07;11.40;99.90
54684;DHT22;40582;53.100;6.686;2023-04-24T02:38:32;11.40;99.90
54684;DHT22;40582;53.100;6.686;2023-04-24T02:40:58;11.40;99.90
54684;DHT22;40582;53.100;6.686;2023-04-24T02:43:24;11.40;99.90
54684;DHT22;40582;53.100;6.686;2023-04-24T02:45:49;11.40;99.90
54684;DHT22;40582;53.100;6.686;2023-04-24T02:48:15;11.40;99.90
54684;DHT22;40582;53.100;6.686;2023-04-24T02:50:42;11.40;99.90
54684;DHT22;40582;53.100;6.686;2023-04-24T02:53:08;11.40;99.90
54684;DHT22;40582;53.100;6.686;2023-04-24T02:55:33;11.40;99.90
54684;DHT22;40582;53.100;6.686;2023-04-24T02:57:59;11.40;99.90
54684;DHT22;40582;53.100;6.686;2023-04-24T03:00:25;11.40;99.90
54684;DHT22;40582;53.100;6.686;2023-04-24T03:02:51;11.40;99.90
54684;DHT22;40582;53.100;6.686;2023-04-24T03:05:16;11.40;99.90
54684;DHT22;40582;53.100;6.686;2023-04-24T03:07:42;11.30;99.90
54684;DHT22;40582;53.100;6.686;2023-04-24T03:10:08;11.20;99.90
54684;DHT22;40582;53.100;6.686;2023-04-24T03:12:34;11.20;99.90
54684;DHT22;40582;53.100;6.686;2023-04-24T03:14:59;11.20;99.90
54684;DHT22;40582;53.100;6.686;2023-04-24T03:17:25;11.20;99.90
54684;DHT22;40582;53.100;6.686;2023-04-24T03:19:51;11.20;99.90
54684;DHT22;40582;53.100;6.686;2023-04-24T03:22:16;11.10;99.90
54684;DHT22;40582;53.100;6.686;2023-04-24T03:24:42;11.10;99.90
54684;DHT22;40582;53.100;6.686;2023-04-24T03:27:08;11.10;99.90
54684;DHT22;40582;53.100;6.686;2023-04-24T03:29:33;11.10;99.90
54684;DHT22;40582;53.100;6.686;2023-04-24T03:31:59;11.10;99.90
54684;DHT22;40582;53.100;6.686;2023-04-24T03:34:25;11.20;99.90
54684;DHT22;40582;53.100;6.686;2023-04-24T03:36:50;11.10;99.90
54684;DHT22;40582;53.100;6.686;2023-04-24T03:39:16;11.00;99.90
54684;DHT22;40582;53.100;6.686;2023-04-24T03:41:42;11.00;99.90
54684;DHT22;40582;53.100;6.686;2023-04-24T03:44:07;11.00;99.90
54684;DHT22;40582;53.100;6.686;2023-04-24T03:46:33;11.00;99.90
54684;DHT22;40582;53.100;6.686;2023-04-24T03:48:59;11.00;99.90
54684;DHT22;40582;53.100;6.686;2023-04-24T03:51:24;11.10;99.90
54684;DHT22;40582;53.100;6.686;2023-04-24T03:53:50;11.10;99.90
54684;DHT22;40582;53.100;6.686;2023-04-24T03:56:16;11.00;99.90
54684;DHT22;40582;53.100;6.686;2023-04-24T03:58:42;11.00;99.90
54684;DHT22;40582;53.100;6.686;2023-04-24T04:01:08;11.00;99.90
54684;DHT22;40582;53.100;6.686;2023-04-24T04:03:33;11.00;99.90
54684;DHT22;40582;53.100;6.686;2023-04-24T04:05:59;11.00;99.90
54684;DHT22;40582;53.100;6.686;2023-04-24T04:08:25;11.00;99.90
54684;DHT22;40582;53.100;6.686;2023-04-24T04:10:51;11.00;99.90
54684;DHT22;40582;53.100;6.686;2023-04-24T04:13:16;11.00;99.90
54684;DHT22;40582;53.100;6.686;2023-04-24T04:15:42;10.90;99.90
54684;DHT22;40582;53.100;6.686;2023-04-24T04:18:08;11.00;99.90
54684;DHT22;40582;53.100;6.686;2023-04-24T04:20:33;10.90;99.90
54684;DHT22;40582;53.100;6.686;2023-04-24T04:22:59;10.90;99.90
54684;DHT22;40582;53.100;6.686;2023-04-24T04:25:25;10.90;99.90
54684;DHT22;40582;53.100;6.686;2023-04-24T04:27:51;10.90;99.90
54684;DHT22;40582;53.100;6.686;2023-04-24T04:30:18;10.80;99.90
54684;DHT22;40582;53.100;6.686;2023-04-24T04:32:44;10.80;99.90
54684;DHT22;40582;53.100;6.686;2023-04-24T04:35:09;10.80;99.90
54684;DHT22;40582;53.100;6.686;2023-04-24T04:37:35;10.80;99.90
54684;DHT22;40582;53.100;6.686;2023-04-24T04:40:02;10.80;99.90
54684;DHT22;40582;53.100;6.686;2023-04-24T04:42:37;10.80;99.90
54684;DHT22;40582;53.100;6.686;2023-04-24T04:45:07;10.80;99.90
54684;DHT22;40582;53.100;6.686;2023-04-24T04:47:34;10.80;99.90
54684;DHT22;40582;53.100;6.686;2023-04-24T04:50:00;11.00;99.90
54684;DHT22;40582;53.100;6.686;2023-04-24T04:52:26;10.90;99.90
54684;DHT22;40582;53.100;6.686;2023-04-24T04:54:52;10.90;99.90
54684;DHT22;40582;53.100;6.686;2023-04-24T04:57:18;10.80;99.90
54684;DHT22;40582;53.100;6.686;2023-04-24T04:59:44;10.80;99.90
54684;DHT22;40582;53.100;6.686;2023-04-24T05:02:10;10.80;99.90
54684;DHT22;40582;53.100;6.686;2023-04-24T05:04:35;10.80;99.90
54684;DHT22;40582;53.100;6.686;2023-04-24T05:07:01;10.90;99.90
54684;DHT22;40582;53.100;6.686;2023-04-24T05:09:27;10.80;99.90
54684;DHT22;40582;53.100;6.686;2023-04-24T05:11:54;10.90;99.90
54684;DHT22;40582;53.100;6.686;2023-04-24T05:14:20;10.90;99.90
54684;DHT22;40582;53.100;6.686;2023-04-24T05:16:47;10.80;99.90
54684;DHT22;40582;53.100;6.686;2023-04-24T05:19:13;10.80;99.90
54684;DHT22;40582;53.100;6.686;2023-04-24T05:21:40;10.80;99.90
54684;DHT22;40582;53.100;6.686;2023-04-24T05:24:06;10.80;99.90
54684;DHT22;40582;53.100;6.686;2023-04-24T05:26:32;10.70;99.90
54684;DHT22;40582;53.100;6.686;2023-04-24T05:28:58;10.70;99.90
54684;DHT22;40582;53.100;6.686;2023-04-24T05:31:24;10.70;99.90
54684;DHT22;40582;53.100;6.686;2023-04-24T05:33:50;10.60;99.90
54684;DHT22;40582;53.100;6.686;2023-04-24T05:36:16;10.60;99.90
54684;DHT22;40582;53.100;6.686;2023-04-24T05:38:42;10.70;99.90
54684;DHT22;40582;53.100;6.686;2023-04-24T05:41:07;10.70;99.90
54684;DHT22;40582;53.100;6.686;2023-04-24T05:43:33;10.60;99.90
54684;DHT22;40582;53.100;6.686;2023-04-24T05:45:59;10.60;99.90
54684;DHT22;40582;53.100;6.686;2023-04-24T05:48:24;10.70;99.90
54684;DHT22;40582;53.100;6.686;2023-04-24T05:50:50;10.70;99.90
54684;DHT22;40582;53.100;6.686;2023-04-24T05:53:18;10.70;99.90
54684;DHT22;40582;53.100;6.686;2023-04-24T05:55:44;10.80;99.90
54684;DHT22;40582;53.100;6.686;2023-04-24T05:58:10;10.80;99.90
54684;DHT22;40582;53.100;6.686;2023-04-24T06:00:36;10.90;99.90
54684;DHT22;40582;53.100;6.686;2023-04-24T06:03:03;11.00;99.90
54684;DHT22;40582;53.100;6.686;2023-04-24T06:05:29;11.00;99.90
54684;DHT22;40582;53.100;6.686;2023-04-24T06:07:56;11.00;99.90
54684;DHT22;40582;53.100;6.686;2023-04-24T06:10:22;11.00;99.90
54684;DHT22;40582;53.100;6.686;2023-04-24T06:12:47;11.00;99.90
54684;DHT22;40582;53.100;6.686;2023-04-24T06:15:13;11.00;99.90
54684;DHT22;40582;53.100;6.686;2023-04-24T06:17:39;11.00;99.90
54684;DHT22;40582;53.100;6.686;2023-04-24T06:20:05;11.00;99.90
54684;DHT22;40582;53.100;6.686;2023-04-24T06:22:32;10.90;99.90
54684;DHT22;40582;53.100;6.686;2023-04-24T06:24:59;10.90;99.90
54684;DHT22;40582;53.100;6.686;2023-04-24T06:27:25;11.00;99.90
54684;DHT22;40582;53.100;6.686;2023-04-24T06:29:50;11.00;99.90
54684;DHT22;40582;53.100;6.686;2023-04-24T06:32:21;11.00;99.90
54684;DHT22;40582;53.100;6.686;2023-04-24T06:34:47;11.00;99.90
54684;DHT22;40582;53.100;6.686;2023-04-24T06:37:13;10.90;99.90
54684;DHT22;40582;53.100;6.686;2023-04-24T06:39:39;10.90;99.90
54684;DHT22;40582;53.100;6.686;2023-04-24T06:42:05;10.90;99.90
54684;DHT22;40582;53.100;6.686;2023-04-24T06:44:31;11.00;99.90
54684;DHT22;40582;53.100;6.686;2023-04-24T06:46:56;11.00;99.90
54684;DHT22;40582;53.100;6.686;2023-04-24T06:49:22;11.00;99.90
54684;DHT22;40582;53.100;6.686;2023-04-24T06:51:47;11.10;99.90
54684;DHT22;40582;53.100;6.686;2023-04-24T06:54:13;11.10;99.90
54684;DHT22;40582;53.100;6.686;2023-04-24T06:56:39;11.10;99.90
54684;DHT22;40582;53.100;6.686;2023-04-24T06:59:05;11.20;99.90
54684;DHT22;40582;53.100;6.686;2023-04-24T07:01:30;11.20;99.90
54684;DHT22;40582;53.100;6.686;2023-04-24T07:03:56;11.10;99.90
54684;DHT22;40582;53.100;6.686;2023-04-24T07:06:21;11.20;99.90
54684;DHT22;40582;53.100;6.686;2023-04-24T07:08:49;11.30;99.90
54684;DHT22;40582;53.100;6.686;2023-04-24T07:11:15;11.30;99.90
54684;DHT22;40582;53.100;6.686;2023-04-24T07:13:41;11.30;99.90
54684;DHT22;40582;53.100;6.686;2023-04-24T07:16:09;11.20;99.90
54684;DHT22;40582;53.100;6.686;2023-04-24T07:18:36;11.30;99.90
54684;DHT22;40582;53.100;6.686;2023-04-24T07:21:02;11.30;99.90
54684;DHT22;40582;53.100;6.686;2023-04-24T07:23:28;11.30;99.90
54684;DHT22;40582;53.100;6.686;2023-04-24T07:25:54;11.20;99.90
54684;DHT22;40582;53.100;6.686;2023-04-24T07:28:19;11.20;99.90
54684;DHT22;40582;53.100;6.686;2023-04-24T07:30:45;11.20;99.90
54684;DHT22;40582;53.100;6.686;2023-04-24T07:33:11;11.20;99.90
54684;DHT22;40582;53.100;6.686;2023-04-24T07:35:38;11.20;99.90
54684;DHT22;40582;53.100;6.686;2023-04-24T07:38:04;11.20;99.90
54684;DHT22;40582;53.100;6.686;2023-04-24T07:40:30;11.20;99.90
54684;DHT22;40582;53.100;6.686;2023-04-24T07:42:56;11.20;99.90
54684;DHT22;40582;53.100;6.686;2023-04-24T07:45:21;11.20;99.90
54684;DHT22;40582;53.100;6.686;2023-04-24T07:47:49;11.20;99.90
54684;DHT22;40582;53.100;6.686;2023-04-24T07:50:15;11.20;99.90
54684;DHT22;40582;53.100;6.686;2023-04-24T07:52:41;11.20;99.90
54684;DHT22;40582;53.100;6.686;2023-04-24T07:55:07;11.20;99.90
54684;DHT22;40582;53.100;6.686;2023-04-24T07:57:33;11.20;99.90
54684;DHT22;40582;53.100;6.686;2023-04-24T07:59:59;11.10;99.90
54684;DHT22;40582;53.100;6.686;2023-04-24T08:02:25;11.10;99.90
54684;DHT22;40582;53.100;6.686;2023-04-24T08:04:55;11.10;99.90
54684;DHT22;40582;53.100;6.686;2023-04-24T08:07:21;11.20;99.90
54684;DHT22;40582;53.100;6.686;2023-04-24T08:09:46;11.20;99.90
54684;DHT22;40582;53.100;6.686;2023-04-24T08:12:12;11.20;99.90
54684;DHT22;40582;53.100;6.686;2023-04-24T08:14:38;11.10;99.90
54684;DHT22;40582;53.100;6.686;2023-04-24T08:17:03;11.00;99.90
54684;DHT22;40582;53.100;6.686;2023-04-24T08:19:29;11.10;99.90
54684;DHT22;40582;53.100;6.686;2023-04-24T08:21:55;11.00;99.90
54684;DHT22;40582;53.100;6.686;2023-04-24T08:24:21;11.10;99.90
54684;DHT22;40582;53.100;6.686;2023-04-24T08:26:47;11.10;99.90
54684;DHT22;40582;53.100;6.686;2023-04-24T08:29:16;11.10;99.90
54684;DHT22;40582;53.100;6.686;2023-04-24T08:31:41;11.10;99.90
54684;DHT22;40582;53.100;6.686;2023-04-24T08:34:07;11.20;99.90
54684;DHT22;40582;53.100;6.686;2023-04-24T08:36:33;11.20;99.90
54684;DHT22;40582;53.100;6.686;2023-04-24T08:38:59;11.20;99.90
54684;DHT22;40582;53.100;6.686;2023-04-24T08:41:25;11.20;99.90
54684;DHT22;40582;53.100;6.686;2023-04-24T08:43:52;11.20;99.90
54684;DHT22;40582;53.100;6.686;2023-04-24T08:46:19;11.10;99.90
54684;DHT22;40582;53.100;6.686;2023-04-24T08:48:46;11.00;99.90
54684;DHT22;40582;53.100;6.686;2023-04-24T08:51:12;10.90;99.90
54684;DHT22;40582;53.100;6.686;2023-04-24T08:53:38;10.90;99.90
54684;DHT22;40582;53.100;6.686;2023-04-24T08:56:04;10.90;99.90
54684;DHT22;40582;53.100;6.686;2023-04-24T08:58:31;10.80;99.90
54684;DHT22;40582;53.100;6.686;2023-04-24T09:00:57;10.70;99.90
54684;DHT22;40582;53.100;6.686;2023-04-24T09:03:24;10.70;99.90
54684;DHT22;40582;53.100;6.686;2023-04-24T09:05:50;10.70;99.90
54684;DHT22;40582;53.100;6.686;2023-04-24T09:08:19;10.70;99.90
54684;DHT22;40582;53.100;6.686;2023-04-24T09:10:45;10.70;99.90
54684;DHT22;40582;53.100;6.686;2023-04-24T09:13:11;10.70;99.90
54684;DHT22;40582;53.100;6.686;2023-04-24T09:15:40;10.60;99.90
54684;DHT22;40582;53.100;6.686;2023-04-24T09:18:06;10.60;99.90
54684;DHT22;40582;53.100;6.686;2023-04-24T09:20:32;10.50;99.90
54684;DHT22;40582;53.100;6.686;2023-04-24T09:22:59;10.50;99.90
54684;DHT22;40582;53.100;6.686;2023-04-24T09:25:31;10.40;99.90
54684;DHT22;40582;53.100;6.686;2023-04-24T09:28:01;10.40;99.90
54684;DHT22;40582;53.100;6.686;2023-04-24T09:30:28;10.50;99.90
54684;DHT22;40582;53.100;6.686;2023-04-24T09:33:16;10.50;99.90
54684;DHT22;40582;53.100;6.686;2023-04-24T09:35:48;10.60;99.90
54684;DHT22;40582;53.100;6.686;2023-04-24T09:38:14;10.50;99.90
54684;DHT22;40582;53.100;6.686;2023-04-24T09:40:40;10.50;99.90
54684;DHT22;40582;53.100;6.686;2023-04-24T09:43:10;10.50;99.90
54684;DHT22;40582;53.100;6.686;2023-04-24T09:45:38;10.50;99.90
54684;DHT22;40582;53.100;6.686;2023-04-24T09:48:05;10.50;99.90
54684;DHT22;40582;53.100;6.686;2023-04-24T09:50:33;10.50;99.90
54684;DHT22;40582;53.100;6.686;2023-04-24T09:53:05;10.50;99.90
54684;DHT22;40582;53.100;6.686;2023-04-24T09:55:31;10.50;99.90
54684;DHT22;40582;53.100;6.686;2023-04-24T09:57:58;10.50;99.90
54684;DHT22;40582;53.100;6.686;2023-04-24T10:00:27;10.50;99.90
54684;DHT22;40582;53.100;6.686;2023-04-24T10:03:00;10.40;99.90
54684;DHT22;40582;53.100;6.686;2023-04-24T10:05:31;10.50;99.90
54684;DHT22;40582;53.100;6.686;2023-04-24T10:08:12;10.50;99.90
54684;DHT22;40582;53.100;6.686;2023-04-24T10:10:42;10.40;99.90
54684;DHT22;40582;53.100;6.686;2023-04-24T10:13:10;10.50;99.90
54684;DHT22;40582;53.100;6.686;2023-04-24T10:15:37;10.50;99.90
54684;DHT22;40582;53.100;6.686;2023-04-24T10:18:04;10.60;99.90
54684;DHT22;40582;53.100;6.686;2023-04-24T10:20:31;10.80;99.90
54684;DHT22;40582;53.100;6.686;2023-04-24T10:22:58;10.90;99.90
54684;DHT22;40582;53.100;6.686;2023-04-24T10:25:26;11.10;99.90
54684;DHT22;40582;53.100;6.686;2023-04-24T10:27:53;11.20;99.90
54684;DHT22;40582;53.100;6.686;2023-04-24T10:30:20;11.40;99.90
54684;DHT22;40582;53.100;6.686;2023-04-24T10:32:46;11.60;99.90
54684;DHT22;40582;53.100;6.686;2023-04-24T10:35:13;11.70;99.90
54684;DHT22;40582;53.100;6.686;2023-04-24T10:37:48;11.80;99.90
54684;DHT22;40582;53.100;6.686;2023-04-24T10:40:19;11.90;99.90
54684;DHT22;40582;53.100;6.686;2023-04-24T10:42:48;11.80;99.90
54684;DHT22;40582;53.100;6.686;2023-04-24T10:45:17;11.90;99.90
54684;DHT22;40582;53.100;6.686;2023-04-24T10:48:04;11.90;99.90
54684;DHT22;40582;53.100;6.686;2023-04-24T10:50:51;11.80;99.90
54684;DHT22;40582;53.100;6.686;2023-04-24T10:53:18;11.70;99.90
54684;DHT22;40582;53.100;6.686;2023-04-24T10:55:47;11.70;99.90
54684;DHT22;40582;53.100;6.686;2023-04-24T10:58:13;11.60;99.90
54684;DHT22;40582;53.100;6.686;2023-04-24T11:00:42;11.50;99.90
54684;DHT22;40582;53.100;6.686;2023-04-24T11:03:32;11.40;99.90
54684;DHT22;40582;53.100;6.686;2023-04-24T11:06:03;11.50;99.90
54684;DHT22;40582;53.100;6.686;2023-04-24T11:08:30;11.50;99.90
54684;DHT22;40582;53.100;6.686;2023-04-24T11:13:25;11.50;99.90
54684;DHT22;40582;53.100;6.686;2023-04-24T11:16:13;11.60;99.90
54684;DHT22;40582;53.100;6.686;2023-04-24T11:18:42;11.60;99.90
54684;DHT22;40582;53.100;6.686;2023-04-24T11:21:12;11.80;99.90
54684;DHT22;40582;53.100;6.686;2023-04-24T11:23:38;11.80;99.90
54684;DHT22;40582;53.100;6.686;2023-04-24T11:26:12;11.80;99.90
54684;DHT22;40582;53.100;6.686;2023-04-24T11:28:49;11.80;99.90
54684;DHT22;40582;53.100;6.686;2023-04-24T11:31:40;11.80;99.90
54684;DHT22;40582;53.100;6.686;2023-04-24T11:34:08;11.70;99.90
54684;DHT22;40582;53.100;6.686;2023-04-24T11:36:35;11.60;99.90
54684;DHT22;40582;53.100;6.686;2023-04-24T11:39:01;11.60;99.90
54684;DHT22;40582;53.100;6.686;2023-04-24T11:41:28;11.50;99.90
54684;DHT22;40582;53.100;6.686;2023-04-24T11:43:55;11.40;99.90
54684;DHT22;40582;53.100;6.686;2023-04-24T11:46:21;11.20;99.90
54684;DHT22;40582;53.100;6.686;2023-04-24T11:48:47;11.10;99.90
54684;DHT22;40582;53.100;6.686;2023-04-24T11:51:13;11.10;99.90
54684;DHT22;40582;53.100;6.686;2023-04-24T11:53:40;11.10;99.90
54684;DHT22;40582;53.100;6.686;2023-04-24T11:56:06;11.20;99.90
54684;DHT22;40582;53.100;6.686;2023-04-24T11:58:38;11.20;99.90
54684;DHT22;40582;53.100;6.686;2023-04-24T12:01:05;11.30;99.90
54684;DHT22;40582;53.100;6.686;2023-04-24T12:03:31;11.40;99.90
54684;DHT22;40582;53.100;6.686;2023-04-24T12:08:33;11.40;99.90
54684;DHT22;40582;53.100;6.686;2023-04-24T12:11:04;11.30;99.90
54684;DHT22;40582;53.100;6.686;2023-04-24T12:13:30;11.20;99.90
54684;DHT22;40582;53.100;6.686;2023-04-24T12:16:01;11.10;99.90
54684;DHT22;40582;53.100;6.686;2023-04-24T12:18:27;10.90;99.90
54684;DHT22;40582;53.100;6.686;2023-04-24T12:20:53;10.80;99.90
54684;DHT22;40582;53.100;6.686;2023-04-24T12:23:34;10.90;99.90
54684;DHT22;40582;53.100;6.686;2023-04-24T12:26:04;10.90;99.90
54684;DHT22;40582;53.100;6.686;2023-04-24T12:28:37;11.00;99.90
54684;DHT22;40582;53.100;6.686;2023-04-24T12:31:04;11.20;99.90
54684;DHT22;40582;53.100;6.686;2023-04-24T12:33:33;11.30;99.90
54684;DHT22;40582;53.100;6.686;2023-04-24T12:36:00;11.40;99.90
54684;DHT22;40582;53.100;6.686;2023-04-24T12:38:26;11.50;99.90
54684;DHT22;40582;53.100;6.686;2023-04-24T12:41:07;11.60;99.90
54684;DHT22;40582;53.100;6.686;2023-04-24T12:43:34;11.70;99.90
54684;DHT22;40582;53.100;6.686;2023-04-24T12:46:00;11.70;99.90
54684;DHT22;40582;53.100;6.686;2023-04-24T12:48:26;11.70;99.90
54684;DHT22;40582;53.100;6.686;2023-04-24T12:50:52;11.80;99.90
54684;DHT22;40582;53.100;6.686;2023-04-24T12:53:18;11.80;99.90
54684;DHT22;40582;53.100;6.686;2023-04-24T12:55:44;11.80;99.90
54684;DHT22;40582;53.100;6.686;2023-04-24T12:58:10;11.60;99.90
54684;DHT22;40582;53.100;6.686;2023-04-24T13:00:36;11.50;99.90
54684;DHT22;40582;53.100;6.686;2023-04-24T13:03:02;11.50;99.90
54684;DHT22;40582;53.100;6.686;2023-04-24T13:05:28;11.50;99.90
54684;DHT22;40582;53.100;6.686;2023-04-24T13:07:54;11.60;99.90
54684;DHT22;40582;53.100;6.686;2023-04-24T13:10:20;11.70;99.90
54684;DHT22;40582;53.100;6.686;2023-04-24T13:12:45;11.80;99.90
54684;DHT22;40582;53.100;6.686;2023-04-24T13:15:12;11.80;99.90
54684;DHT22;40582;53.100;6.686;2023-04-24T13:17:38;11.80;99.90
54684;DHT22;40582;53.100;6.686;2023-04-24T13:20:04;11.70;99.90
54684;DHT22;40582;53.100;6.686;2023-04-24T13:22:30;11.60;99.90
54684;DHT22;40582;53.100;6.686;2023-04-24T13:24:56;11.40;99.90
54684;DHT22;40582;53.100;6.686;2023-04-24T13:27:22;11.20;99.90
54684;DHT22;40582;53.100;6.686;2023-04-24T13:29:48;11.10;99.90
54684;DHT22;40582;53.100;6.686;2023-04-24T13:32:14;11.00;99.90
54684;DHT22;40582;53.100;6.686;2023-04-24T13:34:42;11.00;99.90
54684;DHT22;40582;53.100;6.686;2023-04-24T13:37:08;11.10;99.90
54684;DHT22;40582;53.100;6.686;2023-04-24T13:39:34;11.20;99.90
54684;DHT22;40582;53.100;6.686;2023-04-24T13:42:00;11.40;99.90
54684;DHT22;40582;53.100;6.686;2023-04-24T13:44:26;11.40;99.90
54684;DHT22;40582;53.100;6.686;2023-04-24T13:46:54;11.40;99.90
54684;DHT22;40582;53.100;6.686;2023-04-24T13:49:22;11.50;99.90
54684;DHT22;40582;53.100;6.686;2023-04-24T13:51:51;11.50;99.90
54684;DHT22;40582;53.100;6.686;2023-04-24T13:54:17;11.40;99.90
54684;DHT22;40582;53.100;6.686;2023-04-24T13:56:43;11.40;99.90
54684;DHT22;40582;53.100;6.686;2023-04-24T13:59:09;11.30;99.90
54684;DHT22;40582;53.100;6.686;2023-04-24T14:01:35;11.30;99.90
54684;DHT22;40582;53.100;6.686;2023-04-24T14:04:01;11.30;99.90
54684;DHT22;40582;53.100;6.686;2023-04-24T14:06:27;11.20;99.90
54684;DHT22;40582;53.100;6.686;2023-04-24T14:08:53;11.10;99.90
54684;DHT22;40582;53.100;6.686;2023-04-24T14:11:19;11.10;99.90
54684;DHT22;40582;53.100;6.686;2023-04-24T14:13:45;11.10;99.90
54684;DHT22;40582;53.100;6.686;2023-04-24T14:16:11;11.10;99.90
54684;DHT22;40582;53.100;6.686;2023-04-24T14:18:37;11.10;99.90
54684;DHT22;40582;53.100;6.686;2023-04-24T14:21:04;11.00;99.90
54684;DHT22;40582;53.100;6.686;2023-04-24T14:23:30;11.00;99.90
54684;DHT22;40582;53.100;6.686;2023-04-24T14:25:57;10.80;99.90
54684;DHT22;40582;53.100;6.686;2023-04-24T14:28:23;10.80;99.90
54684;DHT22;40582;53.100;6.686;2023-04-24T14:30:51;10.70;99.90
54684;DHT22;40582;53.100;6.686;2023-04-24T14:33:17;10.60;99.90
54684;DHT22;40582;53.100;6.686;2023-04-24T14:35:44;10.50;99.90
54684;DHT22;40582;53.100;6.686;2023-04-24T14:38:10;10.60;99.90
54684;DHT22;40582;53.100;6.686;2023-04-24T14:40:36;10.50;99.90
54684;DHT22;40582;53.100;6.686;2023-04-24T14:43:02;10.40;99.90
54684;DHT22;40582;53.100;6.686;2023-04-24T14:45:28;10.40;99.90
54684;DHT22;40582;53.100;6.686;2023-04-24T14:47:55;10.40;99.90
54684;DHT22;40582;53.100;6.686;2023-04-24T14:50:21;10.30;99.90
54684;DHT22;40582;53.100;6.686;2023-04-24T14:52:47;10.40;99.90
54684;DHT22;40582;53.100;6.686;2023-04-24T14:55:13;10.50;99.90
54684;DHT22;40582;53.100;6.686;2023-04-24T14:57:40;10.70;99.90
54684;DHT22;40582;53.100;6.686;2023-04-24T15:00:06;10.70;99.90
54684;DHT22;40582;53.100;6.686;2023-04-24T15:02:34;10.80;99.90
54684;DHT22;40582;53.100;6.686;2023-04-24T15:05:02;10.80;99.90
54684;DHT22;40582;53.100;6.686;2023-04-24T15:07:28;10.90;99.90
54684;DHT22;40582;53.100;6.686;2023-04-24T15:09:54;10.90;99.90
54684;DHT22;40582;53.100;6.686;2023-04-24T15:12:20;11.00;99.90
54684;DHT22;40582;53.100;6.686;2023-04-24T15:14:46;11.00;99.90
54684;DHT22;40582;53.100;6.686;2023-04-24T15:17:12;11.00;99.90
54684;DHT22;40582;53.100;6.686;2023-04-24T15:19:38;11.10;99.90
54684;DHT22;40582;53.100;6.686;2023-04-24T15:22:03;11.00;99.90
54684;DHT22;40582;53.100;6.686;2023-04-24T15:24:29;10.90;99.90
54684;DHT22;40582;53.100;6.686;2023-04-24T15:26:55;10.90;99.90
54684;DHT22;40582;53.100;6.686;2023-04-24T15:29:21;10.80;99.90
54684;DHT22;40582;53.100;6.686;2023-04-24T15:31:47;10.60;99.90
54684;DHT22;40582;53.100;6.686;2023-04-24T15:34:13;10.60;99.90